createdAt,value
2018-05-13T00:02:12.055Z,99567.96
2018-05-13T00:06:14.547Z,99556.83
2018-05-13T00:10:17.044Z,99556.44
2018-05-13T00:14:19.542Z,99559.72
2018-05-13T00:18:22.008Z,99553.25
2018-05-13T00:22:24.499Z,99545.83
2018-05-13T00:26:26.999Z,99542.87
2018-05-13T00:30:29.462Z,99531.19
2018-05-13T00:34:31.937Z,99536.72
2018-05-13T00:38:34.429Z,99548.86
2018-05-13T00:42:36.916Z,99538.29
2018-05-13T00:46:39.416Z,99541.52
2018-05-13T00:50:41.944Z,99535.94
2018-05-13T00:54:54.100Z,99535.17
2018-05-13T00:58:56.590Z,99546.83
2018-05-13T01:02:59.086Z,99547.95
2018-05-13T01:07:01.548Z,99543.66
2018-05-13T01:11:04.038Z,99539.70
2018-05-13T01:15:06.530Z,99533.61
2018-05-13T01:19:08.988Z,99532.83
2018-05-13T01:23:11.472Z,99532.06
2018-05-13T01:27:13.997Z,99524.19
2018-05-13T01:31:16.470Z,99528.63
2018-05-13T01:35:18.934Z,99527.42
2018-05-13T01:39:21.424Z,99528.84
2018-05-13T01:43:23.918Z,99528.87
2018-05-13T01:47:26.416Z,99528.02
2018-05-13T01:51:28.889Z,99519.17
2018-05-13T01:55:31.373Z,99517.16
2018-05-13T01:59:33.871Z,99518.73
2018-05-13T02:03:36.352Z,99518.83
2018-05-13T02:07:38.860Z,99516.25
2018-05-13T02:11:41.343Z,99513.70
2018-05-13T02:15:43.826Z,99508.95
2018-05-13T02:19:46.317Z,99502.93
2018-05-13T02:23:48.814Z,99502.53
2018-05-13T02:27:51.292Z,99507.44
2018-05-13T02:31:53.783Z,99500.98
2018-05-13T02:35:56.272Z,99508.78
2018-05-13T02:39:58.767Z,99515.59
2018-05-13T02:44:01.238Z,99514.27
2018-05-13T02:48:03.732Z,99511.17
2018-05-13T02:52:06.242Z,99509.48
2018-05-13T02:56:08.699Z,99514.38
2018-05-13T03:00:13.121Z,99517.12
2018-05-13T03:04:15.589Z,99522.09
2018-05-13T03:08:18.088Z,99526.47
2018-05-13T03:12:20.565Z,99527.02
2018-05-13T03:16:23.064Z,99532.41
2018-05-13T03:20:26.487Z,99526.23
2018-05-13T03:24:28.948Z,99526.27
2018-05-13T03:28:31.431Z,99536.59
2018-05-13T03:32:33.921Z,99537.56
2018-05-13T03:36:36.384Z,99530.88
2018-05-13T03:40:38.902Z,99529.63
2018-05-13T03:44:41.375Z,99538.97
2018-05-13T03:48:43.865Z,99531.89
2018-05-13T03:52:46.350Z,99537.25
2018-05-13T03:56:48.837Z,99541.16
2018-05-13T04:00:51.337Z,99535.34
2018-05-13T04:04:53.850Z,99536.52
2018-05-13T04:09:08.270Z,99537.30
2018-05-13T04:13:22.618Z,99541.65
2018-05-13T04:17:25.106Z,99539.81
2018-05-13T04:21:27.611Z,99540.67
2018-05-13T04:25:30.073Z,99536.60
2018-05-13T04:29:32.639Z,99544.59
2018-05-13T04:33:35.080Z,99541.89
2018-05-13T04:37:37.557Z,99540.08
2018-05-13T04:41:40.027Z,99541.73
2018-05-13T04:45:42.516Z,99542.47
2018-05-13T04:49:44.997Z,99540.05
2018-05-13T04:53:47.482Z,99542.93
2018-05-13T04:57:49.948Z,99548.41
2018-05-13T05:01:52.436Z,99541.88
2018-05-13T05:05:54.919Z,99540.21
2018-05-13T05:09:57.419Z,99539.45
2018-05-13T05:13:59.913Z,99541.94
2018-05-13T05:18:02.399Z,99539.86
2018-05-13T05:22:04.913Z,99542.69
2018-05-13T05:26:07.382Z,99539.38
2018-05-13T05:30:09.866Z,99545.85
2018-05-13T05:34:12.352Z,99539.19
2018-05-13T05:38:14.832Z,99530.67
2018-05-13T05:42:17.299Z,99542.43
2018-05-13T05:46:19.791Z,99542.70
2018-05-13T05:50:22.289Z,99538.53
2018-05-13T05:54:24.758Z,99538.89
2018-05-13T05:58:27.253Z,99541.48
2018-05-13T06:02:29.716Z,99540.22
2018-05-13T06:06:32.203Z,99534.88
2018-05-13T06:10:35.629Z,99534.70
2018-05-13T06:14:38.117Z,99534.09
2018-05-13T06:18:40.595Z,99533.33
2018-05-13T06:22:43.083Z,99529.69
2018-05-13T06:26:45.585Z,99530.34
2018-05-13T06:30:48.991Z,99527.14
2018-05-13T06:34:51.495Z,99535.28
2018-05-13T06:38:53.960Z,99533.91
2018-05-13T06:42:56.441Z,99526.25
2018-05-13T06:46:58.922Z,99524.95
2018-05-13T06:51:01.540Z,99516.34
2018-05-13T06:55:03.907Z,99512.06
2018-05-13T06:59:06.396Z,99513.74
2018-05-13T07:03:08.888Z,99519.72
2018-05-13T07:07:11.383Z,99506.93
2018-05-13T07:11:13.836Z,99511.73
2018-05-13T07:15:16.314Z,99504.91
2018-05-13T07:19:18.797Z,99493.78
2018-05-13T07:23:21.255Z,99498.87
2018-05-13T07:27:23.742Z,99491.33
2018-05-13T07:31:26.237Z,99489.47
2018-05-13T07:35:28.713Z,99482.22
2018-05-13T07:39:31.191Z,99478.73
2018-05-13T07:43:33.668Z,99477.48
2018-05-13T07:47:36.162Z,99469.99
2018-05-13T07:51:38.616Z,99477.60
2018-05-13T07:55:41.096Z,99466.90
2018-05-13T07:59:43.567Z,99468.06
2018-05-13T08:03:46.044Z,99461.09
2018-05-13T08:07:48.562Z,99457.67
2018-05-13T08:11:51.074Z,99457.80
2018-05-13T08:15:53.521Z,99456.85
2018-05-13T08:19:55.999Z,99453.48
2018-05-13T08:23:58.477Z,99455.78
2018-05-13T08:28:00.934Z,99453.48
2018-05-13T08:32:03.411Z,99452.69
2018-05-13T08:36:05.901Z,99455.17
2018-05-13T08:40:08.361Z,99453.91
2018-05-13T08:44:10.860Z,99451.63
2018-05-13T08:48:13.351Z,99443.89
2018-05-13T08:52:15.829Z,99445.17
2018-05-13T08:56:18.316Z,99439.79
2018-05-13T09:00:20.808Z,99437.77
2018-05-13T09:04:23.293Z,99437.45
2018-05-13T09:08:25.827Z,99438.61
2018-05-13T09:12:28.309Z,99430.73
2018-05-13T09:16:30.800Z,99434.92
2018-05-13T09:20:33.342Z,99435.35
2018-05-13T09:24:41.669Z,99430.28
2018-05-13T09:28:44.131Z,99422.11
2018-05-13T09:32:46.618Z,99416.32
2018-05-13T09:36:49.108Z,99418.00
2018-05-13T09:40:51.559Z,99422.89
2018-05-13T09:44:54.054Z,99412.50
2018-05-13T09:48:56.507Z,99417.55
2018-05-13T09:52:58.988Z,99404.38
2018-05-13T09:57:01.459Z,99401.09
2018-05-13T10:01:03.952Z,99403.77
2018-05-13T10:05:06.441Z,99394.37
2018-05-13T10:09:08.939Z,99404.61
2018-05-13T10:13:11.399Z,99393.43
2018-05-13T10:17:13.887Z,99388.50
2018-05-13T10:21:16.349Z,99386.39
2018-05-13T10:25:18.851Z,99381.23
2018-05-13T10:29:21.352Z,99382.31
2018-05-13T10:33:23.831Z,99373.59
2018-05-13T10:37:26.320Z,99375.77
2018-05-13T10:41:28.820Z,99379.84
2018-05-13T10:45:31.321Z,99370.29
2018-05-13T10:49:33.791Z,99360.25
2018-05-13T10:53:36.279Z,99354.55
2018-05-13T10:57:38.802Z,99349.58
2018-05-13T11:01:41.275Z,99352.11
2018-05-13T11:05:43.750Z,99349.91
2018-05-13T11:09:46.238Z,99344.98
2018-05-13T11:13:48.738Z,99335.14
2018-05-13T11:17:51.200Z,99334.25
2018-05-13T11:21:53.695Z,99332.84
2018-05-13T11:25:56.190Z,99332.81
2018-05-13T11:29:58.706Z,99332.61
2018-05-13T11:34:01.188Z,99324.15
2018-05-13T11:38:03.675Z,99327.12
2018-05-13T11:42:06.162Z,99309.84
2018-05-13T11:46:08.651Z,99310.52
2018-05-13T11:50:11.119Z,99313.70
2018-05-13T11:54:13.623Z,99304.60
2018-05-13T11:58:16.095Z,99298.56
2018-05-13T12:02:18.580Z,99290.63
2018-05-13T12:06:21.068Z,99278.20
2018-05-13T12:10:23.539Z,99289.34
2018-05-13T12:14:26.035Z,99284.05
2018-05-13T12:18:28.521Z,99275.59
2018-05-13T12:22:30.993Z,99275.69
2018-05-13T12:26:33.509Z,99272.58
2018-05-13T12:30:35.986Z,99268.28
2018-05-13T12:34:38.447Z,99267.78
2018-05-13T12:38:40.955Z,99258.14
2018-05-13T12:42:43.468Z,99247.48
2018-05-13T12:46:45.946Z,99240.23
2018-05-13T12:50:48.403Z,99254.37
2018-05-13T12:54:50.894Z,99231.63
2018-05-13T12:58:53.375Z,99226.83
2018-05-13T13:02:55.872Z,99227.66
2018-05-13T13:06:58.318Z,99209.84
2018-05-13T13:11:00.812Z,99219.69
2018-05-13T13:15:03.293Z,99217.98
2018-05-13T13:19:05.783Z,99203.72
2018-05-13T13:23:08.237Z,99195.55
2018-05-13T13:27:10.715Z,99198.06
2018-05-13T13:31:13.195Z,99203.72
2018-05-13T13:35:15.674Z,99192.53
2018-05-13T13:39:18.139Z,99190.25
2018-05-13T13:43:20.627Z,99189.22
2018-05-13T13:47:23.143Z,99187.13
2018-05-13T13:51:25.618Z,99190.56
2018-05-13T13:55:28.103Z,99181.79
2018-05-13T13:59:30.660Z,99178.61
2018-05-13T14:03:33.074Z,99174.12
2018-05-13T14:07:35.566Z,99168.93
2018-05-13T14:11:38.053Z,99174.31
2018-05-13T14:15:40.531Z,99159.45
2018-05-13T14:19:43.007Z,99158.62
2018-05-13T14:23:45.556Z,99147.33
2018-05-13T14:27:47.987Z,99151.57
2018-05-13T14:31:50.451Z,99153.80
2018-05-13T14:35:52.937Z,99148.95
2018-05-13T14:39:55.461Z,99150.16
2018-05-13T14:43:57.904Z,99148.19
2018-05-13T14:48:00.383Z,99155.91
2018-05-13T14:52:02.877Z,99139.37
2018-05-13T14:56:05.358Z,99140.70
2018-05-13T15:00:07.839Z,99147.07
2018-05-13T15:04:10.298Z,99149.99
2018-05-13T15:08:12.805Z,99153.48
2018-05-13T15:12:15.264Z,99143.61
2018-05-13T15:16:17.770Z,99138.93
2018-05-13T15:20:20.260Z,99133.21
2018-05-13T15:24:22.728Z,99128.31
2018-05-13T15:28:25.221Z,99132.16
2018-05-13T15:32:27.697Z,99134.22
2018-05-13T15:36:30.156Z,99128.93
2018-05-13T15:40:32.650Z,99128.91
2018-05-13T15:44:35.127Z,99127.41
2018-05-13T15:48:37.610Z,99124.08
2018-05-13T15:52:40.073Z,99122.02
2018-05-13T15:56:42.563Z,99123.16
2018-05-13T16:00:45.054Z,99128.38
2018-05-13T16:04:47.523Z,99120.49
2018-05-13T16:08:50.370Z,99119.04
2018-05-13T16:12:52.854Z,99123.41
2018-05-13T16:16:55.444Z,99113.75
2018-05-13T16:20:57.988Z,99116.30
2018-05-13T16:25:00.573Z,99109.87
2018-05-13T16:29:03.168Z,99111.67
2018-05-13T16:33:05.735Z,99105.78
2018-05-13T16:37:08.518Z,99113.41
2018-05-13T16:41:10.992Z,99101.94
2018-05-13T16:45:13.481Z,99103.27
2018-05-13T16:49:15.960Z,99100.36
2018-05-13T16:53:18.450Z,99110.92
2018-05-13T16:57:20.932Z,99106.66
2018-05-13T17:01:23.415Z,99105.37
2018-05-13T17:05:25.909Z,99103.11
2018-05-13T17:09:28.473Z,99106.97
2018-05-13T17:13:30.884Z,99103.27
2018-05-13T17:17:33.376Z,99109.48
2018-05-13T17:21:35.937Z,99101.28
2018-05-13T17:25:38.432Z,99109.17
2018-05-13T17:29:40.889Z,99111.25
2018-05-13T17:33:43.378Z,99106.16
2018-05-13T17:37:45.858Z,99105.94
2018-05-13T17:41:48.350Z,99107.39
2018-05-13T17:45:50.840Z,99105.62
2018-05-13T17:49:53.433Z,99104.27
2018-05-13T17:53:55.859Z,99102.43
2018-05-13T17:57:58.354Z,99101.37
2018-05-13T18:02:00.900Z,99093.77
2018-05-13T18:06:03.398Z,99103.54
2018-05-13T18:10:05.883Z,99104.29
2018-05-13T18:14:08.399Z,99106.69
2018-05-13T18:18:10.883Z,99105.75
2018-05-13T18:22:13.364Z,99104.30
2018-05-13T18:26:15.866Z,99104.72
2018-05-13T18:30:18.360Z,99099.36
2018-05-13T18:34:20.868Z,99096.77
2018-05-13T18:38:23.350Z,99096.28
2018-05-13T18:42:25.854Z,99095.29
2018-05-13T18:46:28.317Z,99102.97
2018-05-13T18:50:30.804Z,99104.25
2018-05-13T18:54:33.380Z,99106.11
2018-05-13T18:58:35.775Z,99111.73
2018-05-13T19:02:38.278Z,99114.27
2018-05-13T19:06:40.728Z,99120.27
2018-05-13T19:10:43.220Z,99122.72
2018-05-13T19:14:45.713Z,99128.23
2018-05-13T19:18:48.167Z,99140.16
2018-05-13T19:22:50.721Z,99142.16
2018-05-13T19:26:53.184Z,99142.48
2018-05-13T19:30:56.685Z,99146.40
2018-05-13T19:34:59.138Z,99153.60
2018-05-13T19:39:01.628Z,99158.20
2018-05-13T19:43:04.212Z,99168.13
2018-05-13T19:47:06.757Z,99173.70
2018-05-13T19:51:09.216Z,99172.63
2018-05-13T19:55:11.697Z,99172.08
2018-05-13T19:59:14.186Z,99173.30
2018-05-13T20:03:18.788Z,99168.75
2018-05-13T20:07:22.102Z,99172.30
2018-05-13T20:11:25.504Z,99169.11
2018-05-13T20:15:28.095Z,99168.58
2018-05-13T20:19:31.415Z,99169.50
2018-05-13T20:23:33.891Z,99167.20
2018-05-13T20:27:37.332Z,99169.77
2018-05-13T20:31:59.528Z,99170.12
2018-05-13T20:36:02.078Z,99170.83
2018-05-13T20:40:04.545Z,99168.97
2018-05-13T20:44:08.045Z,99176.45
2018-05-13T20:48:10.559Z,99171.72
2018-05-13T20:52:13.160Z,99171.93
2018-05-13T20:56:16.660Z,99169.85
2018-05-13T21:00:21.115Z,99173.88
2018-05-13T21:04:29.118Z,99179.84
2018-05-13T21:08:31.609Z,99174.34
2018-05-13T21:12:36.039Z,99170.84
2018-05-13T21:16:38.549Z,99174.19
2018-05-13T21:20:42.044Z,99171.63
2018-05-13T21:24:46.495Z,99184.67
2018-05-13T21:28:48.995Z,99188.08
2018-05-13T21:32:51.469Z,99199.01
2018-05-13T21:36:54.737Z,99192.66
2018-05-13T21:41:01.140Z,99196.48
2018-05-13T21:45:04.651Z,99192.13
2018-05-13T21:49:07.175Z,99187.28
2018-05-13T21:53:10.657Z,99197.69
2018-05-13T21:57:15.136Z,99203.23
2018-05-13T22:01:17.612Z,99199.89
2018-05-13T22:05:25.529Z,99204.59
2018-05-13T22:09:32.332Z,99209.06
2018-05-13T22:13:36.834Z,99208.75
2018-05-13T22:17:39.328Z,99205.55
2018-05-13T22:21:41.827Z,99203.27
2018-05-13T22:25:44.395Z,99199.98
2018-05-13T22:29:55.488Z,99198.23
2018-05-13T22:33:57.987Z,99185.66
2018-05-13T22:38:01.424Z,99198.64
2018-05-13T22:42:07.760Z,99193.81
2018-05-13T22:46:16.201Z,99197.14
2018-05-13T22:50:18.706Z,99192.00
2018-05-13T22:54:21.201Z,99195.33
2018-05-13T22:58:23.679Z,99193.08
2018-05-13T23:02:28.164Z,99193.58
2018-05-13T23:06:31.583Z,99188.43
2018-05-13T23:10:40.220Z,99190.01
2018-05-13T23:14:42.726Z,99177.78
2018-05-13T23:18:47.146Z,99188.98
2018-05-13T23:22:51.646Z,99178.53
2018-05-13T23:26:54.150Z,99177.08
2018-05-13T23:30:58.678Z,99175.98
2018-05-13T23:35:08.896Z,99171.48
2018-05-13T23:39:13.372Z,99171.16
2018-05-13T23:43:16.899Z,99179.33
2018-05-13T23:47:19.381Z,99171.98
2018-05-13T23:51:21.873Z,99174.70
2018-05-13T23:55:24.391Z,99171.70
2018-05-13T23:59:26.861Z,99171.73
